.
WxDataArchive / Data Records for 2013-02-15
2013-02-14 February 2013 2013-02-16

Data Records for Friday, 15 February 2013

Time	Temp	Chill	HIndex	Humid	Dewpt	 Wind 	HiWind	WindDir	Rain 	Barom 
-----	----	-----	------	-----	-----	------	------	-------	-----	----- 
00:00	32.9	32.9	32.9	62	21.3	1	3	292	0.00	29.943 
00:05	32.9	32.9	32.9	62	21.3	1	3	292	0.00	29.943 
00:10	32.8	32.8	32.8	62	21.2	1	3	270	0.00	29.943 
00:15	32.7	32.7	32.7	63	21.5	0	2	270	0.00	29.946 
00:20	32.5	32.5	32.5	63	21.3	0	2	270	0.00	29.946 
00:25	32.4	32.4	32.4	64	21.6	1	3	270	0.00	29.946 
00:30	32.2	32.2	32.2	64	21.4	1	2	270	0.00	29.949 
00:35	32.2	32.2	32.2	64	21.4	1	2	270	0.00	29.949 
00:40	31.9	31.9	31.9	64	21.1	0	1	270	0.00	29.949 
00:45	31.8	31.8	31.8	65	21.4	0	2	270	0.00	29.948 
00:50	31.6	31.6	31.6	65	21.2	0	2	270	0.00	29.948 
00:55	31.5	31.5	31.5	65	21.1	0	1	270	0.00	29.948 
01:00	31.3	31.3	31.3	66	21.3	0	1	270	0.00	29.944 
01:05	31.0	31.0	31.0	66	21.0	0	1	270	0.00	29.944 
01:10	30.9	30.9	30.9	67	21.3	0	1	270	0.00	29.944 
01:15	30.7	30.7	30.7	67	21.1	0	1	270	0.00	29.943 
01:20	30.7	30.7	30.7	67	21.1	0	1	270	0.00	29.943 
01:25	30.6	30.6	30.6	67	21.0	0	1	270	0.00	29.943 
01:30	30.4	30.4	30.4	68	21.1	0	1	270	0.00	29.951 
01:35	30.3	30.3	30.3	68	21.0	0	1	270	0.00	29.951 
01:40	30.1	30.1	30.1	68	20.8	0	1	270	0.00	29.951 
01:45	30.1	30.1	30.1	68	20.8	0	1	270	0.00	29.949 
01:50	30.0	30.0	30.0	68	20.7	0	1	270	0.00	29.949 
01:55	30.0	30.0	30.0	69	21.1	0	0	---	0.00	29.949 
02:00	29.8	29.8	29.8	69	20.9	0	1	270	0.00	29.949 
02:05	29.8	29.8	29.8	69	20.9	0	1	270	0.00	29.949 
02:10	29.7	29.7	29.7	69	20.8	0	2	270	0.00	29.949 
02:15	29.7	29.7	29.7	69	20.8	0	2	270	0.00	29.953 
02:20	29.7	29.7	29.7	69	20.8	0	3	270	0.00	29.953 
02:25	29.8	29.8	29.8	69	20.9	0	2	270	0.00	29.953 
02:30	29.8	29.8	29.8	69	20.9	1	2	270	0.00	29.960 
02:35	29.8	29.8	29.8	69	20.9	0	2	270	0.00	29.960 
02:40	29.8	29.8	29.8	69	20.9	0	2	270	0.00	29.960 
02:45	29.8	29.8	29.8	69	20.9	1	3	270	0.00	29.963 
02:50	29.8	29.8	29.8	69	20.9	0	3	270	0.00	29.963 
02:55	29.7	29.7	29.7	69	20.8	0	2	270	0.00	29.963 
03:00	29.5	29.5	29.5	69	20.6	0	2	270	0.00	29.965 
03:05	29.5	29.5	29.5	70	20.9	0	3	270	0.00	29.965 
03:10	29.5	29.5	29.5	70	20.9	0	2	270	0.00	29.965 
03:15	29.4	29.4	29.4	71	21.2	0	2	270	0.00	29.968 
03:20	29.4	29.4	29.4	71	21.2	0	2	270	0.00	29.968 
03:25	29.3	29.3	29.3	71	21.1	0	2	270	0.00	29.968 
03:30	29.4	29.4	29.4	72	21.5	0	2	270	0.00	29.969 
03:35	29.4	29.4	29.4	72	21.5	0	3	270	0.00	29.969 
03:40	29.4	29.4	29.4	72	21.5	0	2	270	0.00	29.969 
03:45	29.5	29.5	29.5	72	21.6	0	3	270	0.00	29.970 
03:50	29.5	29.5	29.5	72	21.6	0	2	270	0.00	29.970 
03:55	29.4	29.4	29.4	72	21.5	0	2	270	0.00	29.970 
04:00	29.4	29.4	29.4	72	21.5	0	3	270	0.00	29.969 
04:05	29.4	29.4	29.4	72	21.5	0	2	270	0.00	29.969 
04:10	29.3	29.3	29.3	72	21.4	0	2	270	0.00	29.969 
04:15	29.1	29.1	29.1	72	21.2	0	1	270	0.00	29.973 
04:20	29.0	29.0	29.0	72	21.1	0	2	270	0.00	29.973 
04:25	28.8	28.8	28.8	73	21.3	0	1	270	0.00	29.973 
04:30	28.8	28.8	28.8	73	21.3	0	1	270	0.00	29.975 
04:35	28.8	28.8	28.8	73	21.3	0	2	270	0.00	29.975 
04:40	28.8	28.8	28.8	73	21.3	0	2	270	0.00	29.975 
04:45	28.7	28.7	28.7	73	21.2	0	1	270	0.00	29.976 
04:50	28.7	28.7	28.7	73	21.2	0	1	270	0.00	29.976 
04:55	28.5	28.5	28.5	73	21.0	0	0	---	0.00	29.976 
05:00	28.5	28.5	28.5	73	21.0	0	1	270	0.00	29.982 
05:05	28.5	28.5	28.5	73	21.0	0	1	270	0.00	29.982 
05:10	28.7	28.7	28.7	72	20.8	0	1	270	0.00	29.982 
05:15	28.8	28.8	28.8	72	20.9	0	1	270	0.00	29.989 
05:20	29.1	29.1	29.1	71	20.9	0	2	270	0.00	29.989 
05:25	29.3	29.3	29.3	71	21.1	0	2	270	0.00	29.989 
05:30	29.4	29.4	29.4	70	20.8	0	2	270	0.00	29.990 
05:35	29.5	29.5	29.5	69	20.6	0	3	270	0.00	29.990 
05:40	29.5	29.5	29.5	69	20.6	0	1	270	0.00	29.990 
05:45	29.7	29.7	29.7	69	20.8	1	2	270	0.00	29.990 
05:50	29.8	29.8	29.8	69	20.9	0	2	270	0.00	29.990 
05:55	29.8	29.8	29.8	69	20.9	0	2	270	0.00	29.990 
06:00	29.8	29.8	29.8	69	20.9	0	3	270	0.00	29.993 
06:05	29.8	29.8	29.8	69	20.9	0	1	270	0.00	29.993 
06:10	29.8	29.8	29.8	69	20.9	0	1	270	0.00	29.993 
06:15	29.8	29.8	29.8	69	20.9	0	1	270	0.00	29.995 
06:20	29.8	29.8	29.8	69	20.9	0	1	270	0.00	29.995 
06:25	29.8	29.8	29.8	70	21.2	0	1	270	0.00	29.995 
06:30	30.0	30.0	30.0	70	21.4	0	2	270	0.00	30.000 
06:35	30.1	30.1	30.1	69	21.2	0	2	270	0.00	30.000 
06:40	30.1	30.1	30.1	69	21.2	0	2	270	0.00	30.000 
06:45	30.3	30.3	30.3	69	21.4	0	2	270	0.00	30.005 
06:50	30.4	30.4	30.4	69	21.5	0	2	270	0.00	30.005 
06:55	30.6	30.6	30.6	69	21.7	0	3	270	0.00	30.005 
07:00	30.7	30.7	30.7	69	21.8	0	2	270	0.00	30.008 
07:05	30.7	30.7	30.7	69	21.8	0	2	270	0.00	30.008 
07:10	30.7	30.7	30.7	69	21.8	1	3	270	0.00	30.008 
07:15	30.7	30.7	30.7	69	21.8	0	2	270	0.00	30.017 
07:20	30.7	30.7	30.7	69	21.8	0	2	270	0.00	30.017 
07:25	30.7	30.7	30.7	69	21.8	0	2	270	0.00	30.017 
07:30	30.7	30.7	30.7	69	21.8	0	2	270	0.00	30.020 
07:35	30.9	30.9	30.9	69	21.9	0	2	270	0.00	30.020 
07:40	30.9	30.9	30.9	70	22.3	0	2	270	0.00	30.020 
07:45	30.7	30.7	30.7	70	22.1	0	2	270	0.00	30.025 
07:50	30.7	30.7	30.7	70	22.1	0	2	270	0.00	30.025 
07:55	30.7	30.7	30.7	70	22.1	0	1	270	0.00	30.025 
08:00	30.7	30.7	30.7	71	22.4	0	2	270	0.00	30.034 
08:05	30.6	30.6	30.6	71	22.3	0	1	270	0.00	30.034 
08:10	30.6	30.6	30.6	72	22.7	0	2	270	0.00	30.034 
08:15	30.6	30.6	30.6	72	22.7	0	1	270	0.00	30.041 
08:20	30.4	30.4	30.4	72	22.5	0	1	270	0.00	30.041 
08:25	30.4	30.4	30.4	73	22.8	0	0	---	0.00	30.041 
08:30	30.4	30.4	30.4	73	22.8	0	1	270	0.00	30.052 
08:35	30.3	30.3	30.3	72	22.4	0	3	270	0.00	30.052 
08:40	30.1	30.1	30.1	71	21.9	0	2	270	0.00	30.052 
08:45	30.1	30.1	30.1	71	21.9	0	1	270	0.00	30.061 
08:50	30.1	30.1	30.1	71	21.9	0	1	270	0.00	30.061 
08:55	30.1	30.1	30.1	71	21.9	0	1	270	0.00	30.061 
09:00	30.1	30.1	30.1	71	21.9	0	1	270	0.00	30.068 
09:05	30.3	30.3	30.3	71	22.0	0	1	270	0.00	30.068 
09:10	30.3	30.3	30.3	71	22.0	0	1	270	0.00	30.068 
09:15	30.3	30.3	30.3	71	22.0	0	1	270	0.00	30.070 
09:20	30.3	30.3	30.3	70	21.7	0	2	270	0.00	30.070 
09:25	30.3	30.3	30.3	71	22.0	0	1	270	0.00	30.070 
09:30	30.1	30.1	30.1	71	21.9	0	2	270	0.00	30.079 
09:35	30.1	30.1	30.1	73	22.5	0	3	270	0.00	30.079 
09:40	30.0	30.0	30.0	73	22.4	0	3	270	0.00	30.079 
09:45	30.0	30.0	30.0	75	23.1	0	2	270	0.00	30.083 
09:50	29.8	29.8	29.8	76	23.2	0	2	270	0.00	30.083 
09:55	29.8	29.8	29.8	77	23.5	0	2	270	0.00	30.083 
10:00	29.7	29.7	29.7	79	24.0	0	2	270	0.00	30.085 
10:05	29.5	29.5	29.5	80	24.1	0	1	270	0.00	30.085 
10:10	29.4	29.4	29.4	81	24.3	0	1	270	0.00	30.085 
10:15	29.4	29.4	29.4	81	24.3	0	1	270	0.00	30.088 
10:20	29.4	29.4	29.4	82	24.6	0	1	270	0.00	30.088 
10:25	29.4	29.4	29.4	83	24.9	0	2	270	0.00	30.088 
10:30	29.4	29.4	29.4	83	24.9	0	2	270	0.00	30.087 
10:35	29.5	29.5	29.5	84	25.3	0	2	270	0.00	30.087 
10:40	29.5	29.5	29.5	84	25.3	0	3	270	0.00	30.087 
10:45	29.7	29.7	29.7	84	25.5	0	2	270	0.00	30.088 
10:50	29.7	29.7	29.7	84	25.5	0	2	270	0.00	30.088 
10:55	29.8	29.8	29.8	83	25.3	0	2	270	0.00	30.088 
11:00	29.7	29.7	29.7	83	25.2	0	2	270	0.00	30.088 
11:05	29.5	29.5	29.5	83	25.0	1	4	270	0.00	30.088 
11:10	29.1	29.1	29.1	82	24.3	1	3	292	0.00	30.088 
11:15	29.0	29.0	29.0	81	23.9	0	2	315	0.00	30.097 
11:20	29.1	29.1	29.1	81	24.0	0	2	315	0.00	30.097 
11:25	29.3	29.3	29.3	81	24.2	0	2	315	0.00	30.097 
11:30	29.0	29.0	29.0	78	23.0	1	3	338	0.00	30.101 
11:35	29.0	29.0	29.0	77	22.7	1	4	0	0.00	30.101 
11:40	29.1	29.1	29.1	77	22.8	1	3	292	0.00	30.101 
11:45	29.0	29.0	29.0	77	22.7	1	4	0	0.00	30.105 
11:50	29.0	29.0	29.0	78	23.0	0	2	0	0.00	30.105 
11:55	29.1	29.1	29.1	78	23.1	1	2	0	0.00	30.105 
12:00	29.1	29.1	29.1	78	23.1	0	3	0	0.00	30.105 
12:05	29.4	29.4	29.4	78	23.4	0	2	22	0.00	30.105 
12:10	29.4	29.4	29.4	78	23.4	1	3	22	0.00	30.105 
12:15	29.4	29.4	29.4	78	23.4	1	4	22	0.00	30.107 
12:20	29.5	29.5	29.5	77	23.2	1	3	338	0.00	30.107 
12:25	29.7	29.7	29.7	77	23.4	1	3	338	0.00	30.107 
12:30	29.5	29.5	29.5	77	23.2	1	3	338	0.00	30.106 
12:35	29.5	29.5	29.5	78	23.5	1	3	248	0.00	30.106 
12:40	29.4	29.4	29.4	79	23.7	1	4	0	0.00	30.106 
12:45	29.4	29.4	29.4	80	24.0	2	4	292	0.00	30.106 
12:50	29.5	29.5	29.5	81	24.4	1	4	315	0.00	30.106 
12:55	29.5	29.5	29.5	81	24.4	1	5	315	0.00	30.106 
13:00	29.4	29.4	29.4	79	23.7	1	4	338	0.00	30.105 
13:05	29.5	29.5	29.5	78	23.5	1	6	338	0.00	30.105 
13:10	29.7	29.7	29.7	76	23.1	1	4	338	0.00	30.105 
13:15	30.3	30.3	30.3	75	23.3	1	3	270	0.00	30.103 
13:20	30.6	30.6	30.6	73	23.0	1	4	338	0.00	30.103 
13:25	30.7	30.7	30.7	68	21.4	1	5	338	0.00	30.103 
13:30	30.9	30.9	30.9	66	20.9	1	4	22	0.00	30.099 
13:35	31.8	31.8	31.8	65	21.4	2	5	248	0.00	30.099 
13:40	32.2	32.2	32.2	64	21.4	1	3	292	0.00	30.099 
13:45	31.8	31.8	31.8	59	19.1	2	5	315	0.00	30.097 
13:50	31.3	31.3	31.3	59	18.7	2	5	338	0.00	30.097 
13:55	31.3	31.3	31.3	58	18.3	2	6	315	0.00	30.097 
14:00	31.6	31.6	31.6	57	18.1	2	7	315	0.00	30.092 
14:05	32.2	32.2	32.2	58	19.1	1	4	0	0.00	30.092 
14:10	32.5	32.5	32.5	57	19.0	1	5	0	0.00	30.092 
14:15	32.2	32.2	32.2	54	17.4	2	6	270	0.00	30.091 
14:20	31.9	31.9	31.9	52	16.3	2	5	338	0.00	30.091 
14:25	32.2	32.2	32.2	54	17.4	2	5	270	0.00	30.091 
14:30	32.9	32.9	32.9	54	18.1	1	4	292	0.00	30.089 
14:35	33.4	33.4	33.4	54	18.6	3	7	270	0.00	30.089 
14:40	33.2	33.2	33.2	53	17.9	2	6	315	0.00	30.089 
14:45	32.7	32.7	32.7	54	17.9	2	10	338	0.00	30.089 
14:50	32.4	32.4	32.4	53	17.2	3	6	0	0.00	30.089 
14:55	32.4	32.4	32.4	53	17.2	2	5	292	0.00	30.089 
15:00	31.9	31.9	31.9	53	16.7	3	7	338	0.00	30.089 
15:05	31.8	31.8	31.8	54	17.1	2	6	338	0.00	30.089 
15:10	31.8	31.8	31.8	55	17.5	2	7	315	0.00	30.089 
15:15	31.6	31.6	31.6	55	17.3	1	5	315	0.00	30.094 
15:20	31.8	31.8	31.8	56	17.9	2	4	248	0.00	30.094 
15:25	31.5	31.5	31.5	56	17.6	2	5	315	0.00	30.094 
15:30	31.5	31.5	31.5	55	17.2	2	4	292	0.00	30.102 
15:35	31.3	31.3	31.3	57	17.9	2	6	248	0.00	30.102 
15:40	31.2	31.2	31.2	58	18.2	2	6	270	0.00	30.102 
15:45	30.9	30.9	30.9	59	18.3	2	4	248	0.00	30.107 
15:50	30.6	30.6	30.6	59	18.0	2	4	225	0.00	30.107 
15:55	30.3	30.3	30.3	59	17.7	2	5	248	0.00	30.107 
16:00	30.3	30.3	30.3	61	18.5	1	4	315	0.00	30.115 
16:05	30.3	30.3	30.3	61	18.5	2	7	248	0.00	30.115 
16:10	30.3	30.3	30.3	61	18.5	1	4	338	0.00	30.115 
16:15	30.3	30.3	30.3	61	18.5	2	5	270	0.00	30.119 
16:20	30.3	30.3	30.3	60	18.1	2	5	270	0.00	30.119 
16:25	30.3	30.3	30.3	58	17.3	1	5	292	0.00	30.119 
16:30	30.3	30.3	30.3	56	16.5	2	6	292	0.00	30.118 
16:35	30.3	30.3	30.3	55	16.1	2	4	270	0.00	30.118 
16:40	30.1	30.1	30.1	54	15.5	2	5	292	0.00	30.118 
16:45	30.0	30.0	30.0	54	15.4	2	4	292	0.00	30.122 
16:50	30.0	30.0	30.0	54	15.4	2	5	292	0.00	30.122 
16:55	29.8	29.8	29.8	53	14.8	1	5	338	0.00	30.122 
17:00	29.8	29.8	29.8	50	13.5	1	4	315	0.00	30.124 
17:05	30.1	30.1	30.1	49	13.3	2	5	270	0.00	30.124 
17:10	30.3	30.3	30.3	49	13.5	1	3	270	0.00	30.124 
17:15	30.3	30.3	30.3	49	13.5	2	3	248	0.00	30.124 
17:20	30.0	30.0	30.0	48	12.7	2	5	315	0.00	30.124 
17:25	29.5	29.5	29.5	49	12.7	2	4	270	0.00	30.124 
17:30	29.4	29.4	29.4	50	13.1	1	3	248	0.00	30.134 
17:35	29.1	29.1	29.1	50	12.8	1	5	338	0.00	30.134 
17:40	28.8	28.8	28.8	51	13.0	1	4	338	0.00	30.134 
17:45	28.7	28.7	28.7	52	13.3	1	4	315	0.00	30.138 
17:50	28.5	28.5	28.5	52	13.1	1	3	270	0.00	30.138 
17:55	28.4	28.4	28.4	52	13.0	1	4	270	0.00	30.138 
18:00	28.2	28.2	28.2	52	12.9	1	6	270	0.00	30.139 
18:05	28.2	28.2	28.2	52	12.9	1	3	270	0.00	30.139 
18:10	28.2	28.2	28.2	54	13.7	1	5	292	0.00	30.139 
18:15	28.2	28.2	28.2	54	13.7	1	5	315	0.00	30.140 
18:20	28.2	28.2	28.2	54	13.7	1	3	338	0.00	30.140 
18:25	28.1	28.1	28.1	54	13.6	1	4	248	0.00	30.140 
18:30	27.9	27.9	27.9	54	13.4	1	4	248	0.00	30.145 
18:35	27.5	27.5	27.5	55	13.5	1	4	338	0.00	30.145 
18:40	27.2	27.2	27.2	56	13.6	1	5	338	0.00	30.145 
18:45	26.9	26.9	26.9	56	13.3	1	4	338	0.00	30.151 
18:50	26.7	26.7	26.7	57	13.5	1	3	338	0.00	30.151 
18:55	26.6	26.6	26.6	58	13.8	0	3	270	0.00	30.151 
19:00	26.4	26.4	26.4	58	13.7	0	1	270	0.00	30.158 
19:05	26.3	26.3	26.3	58	13.6	1	3	292	0.00	30.158 
19:10	26.1	26.1	26.1	58	13.4	1	5	315	0.00	30.158 
19:15	26.1	26.1	26.1	58	13.4	1	3	315	0.00	30.161 
19:20	26.0	26.0	26.0	58	13.3	1	3	270	0.00	30.161 
19:25	26.0	26.0	26.0	58	13.3	0	3	292	0.00	30.161 
19:30	25.8	25.8	25.8	59	13.5	0	2	292	0.00	30.164 
19:35	25.8	25.8	25.8	59	13.5	0	2	292	0.00	30.164 
19:40	25.8	25.8	25.8	59	13.5	0	1	292	0.00	30.164 
19:45	25.8	25.8	25.8	60	13.9	0	2	292	0.00	30.165 
19:50	25.8	25.8	25.8	60	13.9	0	2	292	0.00	30.165 
19:55	26.0	26.0	26.0	61	14.4	0	2	292	0.00	30.165 
20:00	26.0	26.0	26.0	61	14.4	0	2	292	0.00	30.168 
20:05	25.8	25.8	25.8	61	14.2	0	2	292	0.00	30.168 
20:10	25.8	25.8	25.8	61	14.2	0	2	292	0.00	30.168 
20:15	25.8	25.8	25.8	62	14.6	0	1	292	0.00	30.169 
20:20	25.6	25.6	25.6	62	14.4	0	2	292	0.00	30.169 
20:25	25.4	25.4	25.4	61	13.9	1	2	315	0.00	30.169 
20:30	25.4	25.4	25.4	61	13.9	1	3	315	0.00	30.170 
20:35	25.3	25.3	25.3	61	13.8	0	2	315	0.00	30.170 
20:40	25.1	25.1	25.1	62	13.9	0	2	315	0.00	30.170 
20:45	25.0	25.0	25.0	62	13.8	0	2	315	0.00	30.173 
20:50	24.8	24.8	24.8	62	13.7	0	1	315	0.00	30.173 
20:55	24.7	24.7	24.7	62	13.6	0	3	315	0.00	30.173 
21:00	24.5	24.5	24.5	62	13.4	0	1	315	0.00	30.173 
21:05	24.4	24.4	24.4	62	13.3	0	2	315	0.00	30.173 
21:10	24.4	24.4	24.4	62	13.3	0	2	315	0.00	30.173 
21:15	24.2	24.2	24.2	62	13.1	0	0	---	0.00	30.172 
21:20	24.1	24.1	24.1	62	13.0	0	1	315	0.00	30.172 
21:25	23.8	23.8	23.8	62	12.7	0	1	315	0.00	30.172 
21:30	23.8	23.8	23.8	63	13.1	0	1	315	0.00	30.174 
21:35	23.6	23.6	23.6	63	12.9	0	0	---	0.00	30.174 
21:40	23.5	23.5	23.5	63	12.8	0	0	---	0.00	30.174 
21:45	23.2	23.2	23.2	64	12.9	0	0	---	0.00	30.175 
21:50	23.0	23.0	23.0	64	12.7	0	0	---	0.00	30.175 
21:55	22.9	22.9	22.9	65	12.9	0	0	---	0.00	30.175 
22:00	22.7	22.7	22.7	65	12.7	0	0	---	0.00	30.176 
22:05	22.7	22.7	22.7	65	12.7	0	0	---	0.00	30.176 
22:10	22.5	22.5	22.5	66	12.9	0	0	---	0.00	30.176 
22:15	22.4	22.4	22.4	66	12.8	0	0	---	0.00	30.175 
22:20	22.2	22.2	22.2	66	12.6	0	0	---	0.00	30.175 
22:25	21.9	21.9	21.9	67	12.7	0	0	---	0.00	30.175 
22:30	21.8	21.8	21.8	67	12.6	0	0	---	0.00	30.175 
22:35	21.6	21.6	21.6	68	12.7	0	0	---	0.00	30.175 
22:40	21.3	21.3	21.3	68	12.4	0	0	---	0.00	30.175 
22:45	21.1	21.1	21.1	69	12.5	0	0	---	0.00	30.177 
22:50	21.0	21.0	21.0	69	12.5	0	0	---	0.00	30.177 
22:55	20.8	20.8	20.8	70	12.6	0	0	---	0.00	30.177 
23:00	21.0	21.0	21.0	71	13.1	0	0	---	0.00	30.169 
23:05	21.0	21.0	21.0	71	13.1	0	0	---	0.00	30.169 
23:10	21.0	21.0	21.0	71	13.1	0	0	---	0.00	30.169 
23:15	21.1	21.1	21.1	72	13.5	0	0	---	0.00	30.166 
23:20	21.1	21.1	21.1	72	13.5	0	0	---	0.00	30.166 
23:25	21.4	21.4	21.4	73	14.1	0	0	---	0.00	30.166 
23:30	21.6	21.6	21.6	73	14.3	0	0	---	0.00	30.164 
23:35	21.8	21.8	21.8	73	14.5	0	0	---	0.00	30.164 
23:40	22.1	22.1	22.1	73	14.8	0	0	---	0.00	30.164 
23:45	22.1	22.1	22.1	73	14.8	0	0	---	0.00	30.159 
23:50	22.2	22.2	22.2	73	14.9	0	0	---	0.00	30.159 
23:55	22.2	22.2	22.2	73	14.9	0	0	---	0.00	30.159 

CoCoRaHS
IN-AL-39
A2 Web Hosting
Creative Commons License
GoDaddy
search engine by freefind advanced

loaded 2018-11-20 14:27:26 • last modified 2010-11-18 10:43:29
Privacy PolicyDisclaimer
• wx.awcolley.com is powered by PmWiki v.2002016 •
• all content (unless otherwise noted) © 2018 A W Colley